Impacts METAR Board INFO
IDs:

KCLE - Cleveland/Hopkins In, OH, US

Updated at: 2054 UTC 13 Dec 2017
Potential Impact None Slight Moderate High
Time13/08Z 13/09Z 13/10Z 13/11Z 13/12Z 13/13Z 13/14Z 13/15Z 13/16Z 13/17Z 13/18Z 13/19Z 13/20Z
VIS8 9 10 4 1.25 10 10 10 10 5 1.5 2 1
CIG38 36 40 30 13 36 90 70 80 44 23 21 18
CoverOVCOVCOVCOVCOVCOVCOVCOVCOVCOVCOVCOVCOVX
FltCatVFRVFRVFRMVFRIFRVFRVFRVFRVFRMVFRIFRIFRIFR
WX-SN-SN---SN-SN BR--------HZ-SN-SN-SN BR
WDir310290290240250230220210200200200180170
WSpd13 10 15 12 10 7 9 8 10 10 9 8 11
WGst-- -- -- -- -- -- -- -- -- -- -- -- --
Raw hourly METARs
KCLE 130751Z 31013KT 8SM -SN OVC038 M07/M13 A2986 RMK AO2 SLP122 P0000 T10671133 $
KCLE 130851Z 29010KT 9SM -SN OVC036 M07/M13 A2985 RMK AO2 SLP121 P0000 60000 T10671133 50000 $
KCLE 130951Z 29015KT 10SM OVC040 M07/M14 A2986 RMK AO2 SNE28 SLP125 P0000 T10671139 $
KCLE 131051Z 24012KT 4SM -SN OVC030 M08/M11 A2987 RMK AO2 SNB08 SLP129 P0000 T10831111 $
KCLE 131151Z 25010KT 1 1/4SM -SN BR BKN013 OVC028 M08/M11 A2988 RMK AO2 SLP130 4/001 P0001 60001 70004 T10831106 11067 21083 51008 $
KCLE 131251Z 23007KT 10SM OVC036 M08/M12 A2986 RMK AO2 SNE34 SLP124 P0001 T10781122 $
KCLE 131351Z 22009KT 10SM SCT035 OVC090 M07/M12 A2985 RMK AO2 SLP120 T10721122 $
KCLE 131451Z 21008KT 10SM BKN070 OVC085 M07/M11 A2984 RMK AO2 SLP115 60001 T10671111 56013 $
KCLE 131551Z 20010KT 10SM SCT033 BKN080 OVC095 M06/M10 A2981 RMK AO2 SLP107 T10561100
KCLE 131651Z 20010KT 5SM HZ FEW026 BKN044 OVC080 M05/M10 A2978 RMK AO2 SLP096 T10501100
KCLE 131751Z 20009KT 1 1/2SM -SN FEW015 BKN023 OVC031 M06/M08 A2972 RMK AO2 SNB1655 PRESFR SLP077 4/001 P0000 60001 T10561083 11050 21083 58037
KCLE 131905Z 18008KT 2SM -SN FEW012 BKN021 OVC038 M06/M08 A2965 RMK AO2 PRESFR P0001 T10561083
KCLE 131951Z 17011KT 1SM -SN BR VV018 M06/M08 A2962 RMK AO2 SLP042 P0002 T10611083